createdAt,value
2023-02-23T00:00:14.933Z,-3.77
2023-02-23T00:02:49.783Z,-3.80
2023-02-23T00:05:35.597Z,-3.84
2023-02-23T00:08:06.493Z,-3.86
2023-02-23T00:10:36.495Z,-3.89
2023-02-23T00:13:06.135Z,-3.97
2023-02-23T00:15:40.804Z,-4.03
2023-02-23T00:18:14.998Z,-4.06
2023-02-23T00:20:45.141Z,-4.11
2023-02-23T00:23:38.189Z,-4.18
2023-02-23T00:26:08.538Z,-4.24
2023-02-23T00:28:48.879Z,-4.28
2023-02-23T00:31:26.847Z,-4.33
2023-02-23T00:33:59.979Z,-4.37
2023-02-23T00:36:55.627Z,-4.43
2023-02-23T00:39:30.818Z,-4.46
2023-02-23T00:42:03.915Z,-4.47
2023-02-23T00:44:34.235Z,-4.51
2023-02-23T00:47:05.533Z,-4.51
2023-02-23T00:49:37.902Z,-4.52
2023-02-23T00:52:06.950Z,-4.55
2023-02-23T00:54:37.522Z,-4.57
2023-02-23T00:57:26.670Z,-4.61
2023-02-23T01:00:00.090Z,-4.63
2023-02-23T01:02:31.828Z,-4.67
2023-02-23T01:05:06.511Z,-4.75
2023-02-23T01:07:56.863Z,-4.82
2023-02-23T01:10:27.604Z,-4.87
2023-02-23T01:12:59.584Z,-4.91
2023-02-23T01:15:28.599Z,-4.94
2023-02-23T01:17:59.458Z,-4.96
2023-02-23T01:20:54.537Z,-4.97
2023-02-23T01:23:43.603Z,-4.96
2023-02-23T01:26:23.262Z,-4.97
2023-02-23T01:28:56.581Z,-4.96
2023-02-23T01:31:30.012Z,-5.01
2023-02-23T01:34:01.827Z,-5.05
2023-02-23T01:36:39.484Z,-5.10
2023-02-23T01:39:12.686Z,-5.11
2023-02-23T01:41:44.995Z,-5.18
2023-02-23T01:44:16.428Z,-5.23
2023-02-23T01:46:49.791Z,-5.28
2023-02-23T01:49:21.447Z,-5.35
2023-02-23T01:52:12.292Z,-5.38
2023-02-23T01:54:45.779Z,-5.40
2023-02-23T01:57:15.300Z,-5.43
2023-02-23T01:59:49.672Z,-5.48
2023-02-23T02:02:20.873Z,-5.54
2023-02-23T02:04:52.740Z,-5.57
2023-02-23T02:07:28.319Z,-5.55
2023-02-23T02:10:11.854Z,-5.49
2023-02-23T02:12:48.552Z,-5.44
2023-02-23T02:15:34.273Z,-5.37
2023-02-23T02:18:19.432Z,-5.31
2023-02-23T02:21:05.381Z,-5.23
2023-02-23T02:24:06.269Z,-5.16
2023-02-23T02:27:06.016Z,-5.12
2023-02-23T02:30:14.258Z,-5.12
2023-02-23T02:32:47.547Z,-5.10
2023-02-23T02:35:26.253Z,-5.08
2023-02-23T02:38:32.436Z,-5.05
2023-02-23T02:41:41.858Z,-5.06
2023-02-23T02:44:28.460Z,-5.10
2023-02-23T02:47:05.818Z,-5.10
2023-02-23T02:49:49.581Z,-5.06
2023-02-23T02:52:24.607Z,-5.04
2023-02-23T02:54:56.994Z,-5.08
2023-02-23T02:57:27.718Z,-5.07
2023-02-23T03:00:24.481Z,-5.10
2023-02-23T03:03:13.217Z,-5.11
2023-02-23T03:06:04.817Z,-5.11
2023-02-23T03:09:08.179Z,-5.13
2023-02-23T03:12:00.490Z,-5.12
2023-02-23T03:14:54.803Z,-5.17
2023-02-23T03:17:53.017Z,-5.23
2023-02-23T03:21:02.004Z,-5.26
2023-02-23T03:23:59.044Z,-5.29
2023-02-23T03:27:08.892Z,-5.29
2023-02-23T03:30:02.444Z,-5.28
2023-02-23T03:33:20.851Z,-5.32
2023-02-23T03:36:17.120Z,-5.33
2023-02-23T03:39:32.709Z,-5.25
2023-02-23T03:42:21.363Z,-5.16
2023-02-23T03:45:10.864Z,-5.19
2023-02-23T03:47:59.604Z,-5.17
2023-02-23T03:51:05.148Z,-5.10
2023-02-23T03:53:59.733Z,-5.01
2023-02-23T03:56:47.589Z,-4.93
2023-02-23T03:59:35.613Z,-4.90
2023-02-23T04:02:22.938Z,-4.92
2023-02-23T04:05:11.292Z,-4.96
2023-02-23T04:07:59.482Z,-4.98
2023-02-23T04:10:47.114Z,-5.01
2023-02-23T04:13:19.756Z,-4.96
2023-02-23T04:16:02.365Z,-4.91
2023-02-23T04:18:34.430Z,-4.85
2023-02-23T04:21:03.174Z,-4.81
2023-02-23T04:23:32.456Z,-4.80
2023-02-23T04:26:04.052Z,-4.74
2023-02-23T04:28:35.499Z,-4.72
2023-02-23T04:31:04.751Z,-4.76
2023-02-23T04:33:34.974Z,-4.83
2023-02-23T04:36:03.769Z,-4.85
2023-02-23T04:38:43.465Z,-4.90
2023-02-23T04:41:11.957Z,-4.92
2023-02-23T04:43:42.019Z,-4.89
2023-02-23T04:46:11.023Z,-4.89
2023-02-23T04:48:39.790Z,-4.85
2023-02-23T04:51:09.031Z,-4.81
2023-02-23T04:53:38.443Z,-4.77
2023-02-23T04:56:08.005Z,-4.73
2023-02-23T04:58:36.853Z,-4.72
2023-02-23T05:01:11.240Z,-4.68
2023-02-23T05:03:40.453Z,-4.66
2023-02-23T05:06:09.969Z,-4.65
2023-02-23T05:08:38.647Z,-4.62
2023-02-23T05:11:09.063Z,-4.60
2023-02-23T05:13:40.691Z,-4.55
2023-02-23T05:16:09.581Z,-4.56
2023-02-23T05:18:39.731Z,-4.57
2023-02-23T05:21:14.762Z,-4.50
2023-02-23T05:23:45.874Z,-4.44
2023-02-23T05:29:37.825Z,-4.35
2023-02-23T05:35:16.075Z,-4.18
2023-02-23T05:37:45.864Z,-4.11
2023-02-23T05:40:44.431Z,-4.00
2023-02-23T05:59:23.685Z,-0.52
2023-02-23T06:01:56.070Z,0.11
2023-02-23T06:07:59.915Z,1.59
2023-02-23T06:11:07.947Z,2.31
2023-02-23T06:17:22.408Z,3.38
2023-02-23T06:20:22.031Z,3.89
2023-02-23T06:23:05.836Z,4.24
2023-02-23T06:25:39.373Z,4.30
2023-02-23T06:28:16.546Z,4.37
2023-02-23T06:30:53.041Z,4.55
2023-02-23T06:33:22.634Z,4.89
2023-02-23T06:36:01.900Z,5.10
2023-02-23T06:38:54.726Z,4.91
2023-02-23T07:02:17.258Z,0.92
2023-02-23T07:05:11.201Z,0.57
2023-02-23T09:50:02.013Z,10.12
2023-02-23T11:40:42.631Z,6.76
2023-02-23T12:43:33.292Z,2.41
2023-02-23T12:47:41.282Z,2.34
2023-02-23T14:21:40.731Z,-0.49
2023-02-23T23:42:05.104Z,-4.22
2023-02-23T23:44:37.359Z,-4.25
2023-02-23T23:47:18.094Z,-4.22
2023-02-23T23:50:13.062Z,-4.22
2023-02-23T23:53:07.896Z,-4.23
2023-02-23T23:56:01.924Z,-4.21
2023-02-23T23:58:40.629Z,-4.20
